sensor_id;sensor_type;location;lat;lon;timestamp;temperature;humidity
45735;DHT22;31446;49.632;8.328;2022-09-03T00:03:53;18.20;91.60
45735;DHT22;31446;49.632;8.328;2022-09-03T00:18:59;18.20;91.80
45735;DHT22;31446;49.632;8.328;2022-09-03T00:34:19;18.10;92.20
45735;DHT22;31446;49.632;8.328;2022-09-03T00:49:43;18.00;92.30
45735;DHT22;31446;49.632;8.328;2022-09-03T01:20:19;17.80;92.70
45735;DHT22;31446;49.632;8.328;2022-09-03T01:35:37;17.70;92.50
45735;DHT22;31446;49.632;8.328;2022-09-03T01:51:06;17.60;92.80
45735;DHT22;31446;49.632;8.328;2022-09-03T02:06:11;17.40;93.50
45735;DHT22;31446;49.632;8.328;2022-09-03T02:21:16;17.40;93.60
45735;DHT22;31446;49.632;8.328;2022-09-03T02:36:20;17.40;93.50
45735;DHT22;31446;49.632;8.328;2022-09-03T02:51:21;17.40;93.70
45735;DHT22;31446;49.632;8.328;2022-09-03T03:06:22;17.50;94.00
45735;DHT22;31446;49.632;8.328;2022-09-03T03:21:23;17.20;94.10
45735;DHT22;31446;49.632;8.328;2022-09-03T03:36:26;17.20;94.40
45735;DHT22;31446;49.632;8.328;2022-09-03T03:51:27;17.30;94.50
45735;DHT22;31446;49.632;8.328;2022-09-03T04:06:28;17.10;94.90
45735;DHT22;31446;49.632;8.328;2022-09-03T04:21:29;17.00;95.40
45735;DHT22;31446;49.632;8.328;2022-09-03T04:36:30;17.00;95.80
45735;DHT22;31446;49.632;8.328;2022-09-03T04:51:31;17.10;95.80
45735;DHT22;31446;49.632;8.328;2022-09-03T05:06:33;17.00;95.90
45735;DHT22;31446;49.632;8.328;2022-09-03T05:21:34;17.10;96.30
45735;DHT22;31446;49.632;8.328;2022-09-03T05:36:36;16.80;99.90
45735;DHT22;31446;49.632;8.328;2022-09-03T05:51:37;16.80;99.90
45735;DHT22;31446;49.632;8.328;2022-09-03T06:06:44;16.90;99.90
45735;DHT22;31446;49.632;8.328;2022-09-03T06:21:46;17.40;99.90
45735;DHT22;31446;49.632;8.328;2022-09-03T06:36:46;18.00;99.90
45735;DHT22;31446;49.632;8.328;2022-09-03T06:51:47;17.50;99.90
45735;DHT22;31446;49.632;8.328;2022-09-03T07:06:47;17.00;99.90
45735;DHT22;31446;49.632;8.328;2022-09-03T07:21:48;17.00;99.90
45735;DHT22;31446;49.632;8.328;2022-09-03T07:36:49;16.80;99.90
45735;DHT22;31446;49.632;8.328;2022-09-03T07:51:50;17.20;99.90
45735;DHT22;31446;49.632;8.328;2022-09-03T08:06:53;18.80;99.90
45735;DHT22;31446;49.632;8.328;2022-09-03T08:21:56;19.10;99.90
45735;DHT22;31446;49.632;8.328;2022-09-03T08:36:56;19.80;99.90
45735;DHT22;31446;49.632;8.328;2022-09-03T08:52:25;19.70;99.90
45735;DHT22;31446;49.632;8.328;2022-09-03T09:07:31;19.20;99.90
45735;DHT22;31446;49.632;8.328;2022-09-03T09:22:41;19.70;99.90
45735;DHT22;31446;49.632;8.328;2022-09-03T09:37:51;20.30;99.90
45735;DHT22;31446;49.632;8.328;2022-09-03T09:53:08;21.20;99.90
45735;DHT22;31446;49.632;8.328;2022-09-03T10:08:20;22.20;99.90
45735;DHT22;31446;49.632;8.328;2022-09-03T10:23:23;22.10;99.90
45735;DHT22;31446;49.632;8.328;2022-09-03T10:38:26;22.90;99.90
45735;DHT22;31446;49.632;8.328;2022-09-03T11:09:39;23.40;99.90
45735;DHT22;31446;49.632;8.328;2022-09-03T11:24:25;23.90;99.90
45735;DHT22;31446;49.632;8.328;2022-09-03T11:54:32;24.20;99.90
45735;DHT22;31446;49.632;8.328;2022-09-03T12:25:11;24.40;99.90
45735;DHT22;31446;49.632;8.328;2022-09-03T12:55:29;25.90;99.90
45735;DHT22;31446;49.632;8.328;2022-09-03T13:10:41;26.20;99.90
45735;DHT22;31446;49.632;8.328;2022-09-03T13:25:57;26.90;99.90
45735;DHT22;31446;49.632;8.328;2022-09-03T13:56:56;25.70;99.90
45735;DHT22;31446;49.632;8.328;2022-09-03T14:12:16;25.40;99.90
45735;DHT22;31446;49.632;8.328;2022-09-03T14:27:23;25.00;99.90
45735;DHT22;31446;49.632;8.328;2022-09-03T15:28:49;23.30;99.90
45735;DHT22;31446;49.632;8.328;2022-09-03T15:43:58;23.30;99.90
45735;DHT22;31446;49.632;8.328;2022-09-03T16:14:37;22.60;99.90
45735;DHT22;31446;49.632;8.328;2022-09-03T16:29:41;22.10;99.90
45735;DHT22;31446;49.632;8.328;2022-09-03T17:00:10;20.10;99.90
45735;DHT22;31446;49.632;8.328;2022-09-03T17:15:24;19.20;99.90
45735;DHT22;31446;49.632;8.328;2022-09-03T17:30:38;19.30;99.90
45735;DHT22;31446;49.632;8.328;2022-09-03T18:16:06;19.10;99.90
45735;DHT22;31446;49.632;8.328;2022-09-03T18:31:13;18.50;99.90
45735;DHT22;31446;49.632;8.328;2022-09-03T19:02:40;17.90;99.90
45735;DHT22;31446;49.632;8.328;2022-09-03T19:18:09;17.70;99.90
45735;DHT22;31446;49.632;8.328;2022-09-03T20:05:10;17.20;99.90
45735;DHT22;31446;49.632;8.328;2022-09-03T20:20:44;17.00;99.90
45735;DHT22;31446;49.632;8.328;2022-09-03T20:51:06;16.90;99.90
45735;DHT22;31446;49.632;8.328;2022-09-03T21:21:47;16.80;99.90
45735;DHT22;31446;49.632;8.328;2022-09-03T21:36:51;16.70;99.90
45735;DHT22;31446;49.632;8.328;2022-09-03T21:51:59;16.50;99.90
45735;DHT22;31446;49.632;8.328;2022-09-03T22:22:36;16.30;99.90
45735;DHT22;31446;49.632;8.328;2022-09-03T22:53:04;16.10;99.90
45735;DHT22;31446;49.632;8.328;2022-09-03T23:08:16;16.10;99.90
45735;DHT22;31446;49.632;8.328;2022-09-03T23:23:41;16.20;99.90
